Time;durP1;ratioP1;P1;durP2;ratioP2;P2;SDS_P1;SDS_P2;PMS_P1;PMS_P2;Temp;Humidity;BMP_temperature;BMP_pressure;BME280_temperature;BME280_humidity;BME280_pressure;Samples;Min_cycle;Max_cycle;Signal;HPM_P1;HPM_P2
2022/08/05 00:01:39;;;;;;;5.47;4.00;;;26.50;61.60;;;;;;5001398;28;20886;-69
2022/08/05 00:04:05;;;;;;;4.05;3.65;;;26.50;61.60;;;;;;5004484;28;20404;-69
2022/08/05 00:06:31;;;;;;;4.37;3.50;;;26.50;61.60;;;;;;5004962;28;20385;-69
2022/08/05 00:08:57;;;;;;;4.20;3.80;;;26.50;61.60;;;;;;5002468;28;20410;-69
2022/08/05 00:11:23;;;;;;;4.28;3.83;;;26.50;61.60;;;;;;4985228;28;20474;-69
2022/08/05 00:13:48;;;;;;;4.10;3.70;;;26.50;61.60;;;;;;5002385;28;20559;-69
2022/08/05 00:16:15;;;;;;;4.55;3.70;;;26.50;61.60;;;;;;5001897;28;20884;-69
2022/08/05 00:18:45;;;;;;;4.40;4.00;;;26.50;61.60;;;;;;5004731;28;20392;-69
2022/08/05 00:21:13;;;;;;;4.60;3.83;;;26.40;61.50;;;;;;5003641;28;20403;-69
2022/08/05 00:23:40;;;;;;;3.97;3.57;;;26.50;61.60;;;;;;5004826;28;20415;-70
2022/08/05 00:26:06;;;;;;;4.68;3.70;;;26.50;61.60;;;;;;5002065;28;20928;-69
2022/08/05 00:28:33;;;;;;;4.30;3.90;;;26.40;61.50;;;;;;5003135;28;20476;-69
2022/08/05 00:30:59;;;;;;;4.40;4.00;;;26.40;61.50;;;;;;5003702;28;20442;-69
2022/08/05 00:33:26;;;;;;;4.45;4.05;;;26.40;61.50;;;;;;5002741;28;20902;-73
2022/08/05 00:35:52;;;;;;;4.57;4.07;;;26.40;61.50;;;;;;5005275;28;20411;-70
2022/08/05 00:38:18;;;;;;;4.15;3.70;;;26.40;61.50;;;;;;4987033;28;20920;-69
2022/08/05 00:40:49;;;;;;;3.85;3.50;;;26.40;61.50;;;;;;5004288;28;20397;-73
2022/08/05 00:43:17;;;;;;;4.10;3.80;;;26.40;61.50;;;;;;5002493;28;20794;-70
2022/08/05 00:45:44;;;;;;;4.20;3.80;;;26.40;61.50;;;;;;5008105;28;20460;-70
2022/08/05 00:48:15;;;;;;;4.30;3.90;;;26.40;61.50;;;;;;5012377;28;20405;-69
2022/08/05 00:50:42;;;;;;;4.28;3.80;;;26.40;61.50;;;;;;5012998;28;20385;-69
2022/08/05 00:53:08;;;;;;;6.20;3.95;;;26.40;61.50;;;;;;4995613;28;20424;-69
2022/08/05 00:55:34;;;;;;;4.70;3.83;;;26.40;61.50;;;;;;5001643;28;20456;-69
2022/08/05 00:58:00;;;;;;;4.00;3.60;;;26.40;61.50;;;;;;4994309;28;20402;-68
2022/08/05 01:00:27;;;;;;;4.00;3.60;;;26.40;61.50;;;;;;4976554;28;20398;-68
2022/08/05 01:02:53;;;;;;;4.70;3.58;;;26.40;61.50;;;;;;4976517;28;20402;-69
2022/08/05 01:05:19;;;;;;;4.15;3.75;;;26.40;61.50;;;;;;4993749;28;20398;-69
2022/08/05 01:07:44;;;;;;;4.10;3.70;;;26.40;61.60;;;;;;4995111;28;20405;-69
2022/08/05 01:10:14;;;;;;;4.05;3.60;;;26.40;61.60;;;;;;4982938;28;20418;-69
2022/08/05 01:12:45;;;;;;;4.90;3.70;;;26.40;61.50;;;;;;5002714;28;20886;-69
2022/08/05 01:15:16;;;;;;;4.95;3.90;;;26.40;61.60;;;;;;5009828;28;20399;-69
2022/08/05 01:17:49;;;;;;;4.28;3.88;;;26.40;61.50;;;;;;5013613;28;20403;-69
2022/08/05 01:20:44;;;;;;;4.65;3.67;;;26.40;61.50;;;;;;4995659;28;20401;-69
2022/08/05 01:23:23;;;;;;;4.60;4.20;;;26.40;61.60;;;;;;5011993;28;20396;-69
2022/08/05 01:26:10;;;;;;;4.30;3.90;;;26.40;61.60;;;;;;5002967;28;20476;-73
2022/08/05 01:28:42;;;;;;;4.28;3.88;;;26.40;61.60;;;;;;5003322;28;20399;-72
2022/08/05 01:31:15;;;;;;;4.20;3.80;;;26.40;61.60;;;;;;5004215;28;20394;-72
2022/08/05 01:34:08;;;;;;;4.30;3.90;;;26.40;61.60;;;;;;5004083;28;20429;-69
2022/08/05 01:36:38;;;;;;;4.10;3.67;;;26.40;61.60;;;;;;4986518;28;20482;-69
2022/08/05 01:39:04;;;;;;;4.00;3.60;;;26.40;61.60;;;;;;5004267;28;20434;-69
2022/08/05 01:41:34;;;;;;;3.92;3.55;;;26.30;61.60;;;;;;5013146;28;20479;-69
2022/08/05 01:44:01;;;;;;;4.13;3.67;;;26.30;61.50;;;;;;5013064;28;20405;-72
2022/08/05 01:46:29;;;;;;;4.20;3.78;;;26.30;61.50;;;;;;5012980;28;20381;-70
2022/08/05 01:48:57;;;;;;;4.30;3.90;;;26.30;61.40;;;;;;5012733;28;20412;-69
2022/08/05 01:51:25;;;;;;;4.53;3.70;;;26.30;61.40;;;;;;5012628;28;20389;-69
2022/08/05 01:53:53;;;;;;;4.10;3.70;;;26.40;61.50;;;;;;5012839;28;20510;-69
2022/08/05 01:56:20;;;;;;;4.03;3.60;;;26.30;61.50;;;;;;4995185;28;20896;-69
2022/08/05 01:58:49;;;;;;;4.88;4.20;;;26.40;61.50;;;;;;5006314;28;20427;-70
2022/08/05 02:01:18;;;;;;;4.47;4.07;;;26.30;61.40;;;;;;5009362;28;20436;-70
2022/08/05 02:03:47;;;;;;;4.50;4.10;;;26.30;61.40;;;;;;5010423;28;20465;-69
2022/08/05 02:06:13;;;;;;;4.35;3.95;;;26.30;61.40;;;;;;4992731;28;20398;-70
2022/08/05 02:08:39;;;;;;;4.20;3.80;;;26.30;61.40;;;;;;4992957;28;20480;-73
2022/08/05 02:11:09;;;;;;;4.38;3.80;;;26.30;61.40;;;;;;4992318;28;20398;-70
2022/08/05 02:13:43;;;;;;;4.10;3.80;;;26.30;61.50;;;;;;4993250;28;20428;-69
2022/08/05 02:16:33;;;;;;;4.50;3.83;;;26.30;61.50;;;;;;5000561;28;20904;-70
2022/08/05 02:19:05;;;;;;;4.32;3.80;;;26.30;61.50;;;;;;5012312;28;20416;-69
2022/08/05 02:21:35;;;;;;;5.47;4.00;;;26.30;61.40;;;;;;5012391;28;20400;-70
2022/08/05 02:24:07;;;;;;;4.87;4.00;;;26.30;61.50;;;;;;5011546;28;20475;-69
2022/08/05 02:26:55;;;;;;;5.13;4.00;;;26.30;61.50;;;;;;5011187;28;20411;-69
2022/08/05 02:29:24;;;;;;;4.93;4.20;;;26.20;61.40;;;;;;5012164;28;20749;-69
2022/08/05 02:31:53;;;;;;;4.35;3.95;;;26.30;61.50;;;;;;5010778;28;20428;-69
2022/08/05 02:34:20;;;;;;;5.22;3.90;;;26.30;61.50;;;;;;5010820;28;20405;-69
2022/08/05 02:36:53;;;;;;;4.55;3.90;;;26.30;61.50;;;;;;5011813;28;20413;-69
2022/08/05 02:39:20;;;;;;;4.35;3.95;;;26.20;61.30;;;;;;5011509;28;20397;-68
2022/08/05 02:41:47;;;;;;;4.40;4.00;;;26.30;61.40;;;;;;5011917;28;20396;-70
2022/08/05 02:44:14;;;;;;;4.03;3.63;;;26.30;61.40;;;;;;5010547;28;20484;-70
2022/08/05 02:46:42;;;;;;;4.13;3.72;;;26.30;61.40;;;;;;5012441;28;20481;-70
2022/08/05 02:49:09;;;;;;;4.38;3.97;;;26.30;61.40;;;;;;5004168;28;20426;-69
2022/08/05 02:51:38;;;;;;;4.40;3.92;;;26.20;61.30;;;;;;4998938;28;20866;-68
2022/08/05 02:54:05;;;;;;;5.07;4.25;;;26.20;61.30;;;;;;5010704;28;20412;-69
2022/08/05 02:56:33;;;;;;;5.15;3.83;;;26.20;61.30;;;;;;5011453;28;20455;-69
2022/08/05 03:02:30;;;;;;;4.28;3.88;;;26.20;61.30;;;;;;4993245;28;20421;-69
2022/08/05 03:04:57;;;;;;;4.30;3.90;;;26.20;61.30;;;;;;4990657;28;20394;-69
2022/08/05 03:07:25;;;;;;;5.15;4.00;;;26.20;61.30;;;;;;5005962;28;20408;-71
2022/08/05 03:09:51;;;;;;;6.63;3.97;;;26.20;61.30;;;;;;5005346;28;20400;-70
2022/08/05 03:12:34;;;;;;;9.23;4.15;;;26.20;61.90;;;;;;5011743;28;20405;-71
2022/08/05 03:15:01;;;;;;;11.07;4.50;;;26.20;61.60;;;;;;5011364;28;20412;-70
2022/08/05 03:17:26;;;;;;;18.35;5.78;;;26.30;61.80;;;;;;5011334;28;20396;-70
2022/08/05 03:19:52;;;;;;;12.70;6.60;;;26.30;62.80;;;;;;5010281;28;20446;-70
2022/08/05 03:22:18;;;;;;;15.77;6.00;;;26.30;65.60;;;;;;5011703;28;20389;-71
2022/08/05 03:24:45;;;;;;;17.90;5.60;;;26.40;65.00;;;;;;5012290;28;20420;-69
2022/08/05 03:27:12;;;;;;;11.68;5.28;;;26.40;65.30;;;;;;5009913;28;20388;-71
2022/08/05 03:29:39;;;;;;;7.82;4.90;;;26.50;65.50;;;;;;5011652;28;20385;-71
2022/08/05 03:32:09;;;;;;;10.05;4.60;;;26.50;65.90;;;;;;5011511;28;20412;-70
2022/08/05 03:34:35;;;;;;;9.02;4.57;;;26.60;65.90;;;;;;5012005;28;20488;-71
2022/08/05 03:37:04;;;;;;;6.70;4.25;;;26.60;65.40;;;;;;5014836;28;20412;-69
2022/08/05 03:39:29;;;;;;;6.90;4.50;;;26.60;65.20;;;;;;5014005;28;20392;-70
2022/08/05 03:41:56;;;;;;;13.25;4.50;;;26.60;65.40;;;;;;4997662;28;20447;-70
2022/08/05 03:44:21;;;;;;;17.00;4.77;;;26.60;64.80;;;;;;5015187;28;20439;-71
2022/08/05 03:46:47;;;;;;;18.70;5.18;;;26.60;65.30;;;;;;4997713;28;20433;-70
2022/08/05 03:49:13;;;;;;;15.40;4.73;;;26.60;65.60;;;;;;5013503;28;20389;-69
2022/08/05 03:51:44;;;;;;;16.23;4.97;;;26.60;64.00;;;;;;5015172;28;20388;-70
2022/08/05 03:54:38;;;;;;;16.02;4.47;;;26.50;64.00;;;;;;5015388;28;20401;-69
2022/08/05 03:57:05;;;;;;;11.00;4.70;;;26.50;64.50;;;;;;5014712;28;20396;-70
2022/08/05 03:59:36;;;;;;;11.40;4.60;;;26.60;64.60;;;;;;5014596;28;20389;-70
2022/08/05 04:02:02;;;;;;;24.55;5.40;;;26.60;64.50;;;;;;4997559;28;20424;-70
2022/08/05 04:04:30;;;;;;;13.48;5.13;;;26.60;64.10;;;;;;4997131;28;20439;-69
2022/08/05 04:06:57;;;;;;;13.65;5.00;;;26.60;62.70;;;;;;5015243;28;20399;-69
2022/08/05 04:09:24;;;;;;;11.40;5.03;;;26.50;62.30;;;;;;5013603;28;20404;-69
2022/08/05 04:11:50;;;;;;;9.48;5.00;;;26.50;62.10;;;;;;4996202;28;20771;-70
2022/08/05 04:14:17;;;;;;;10.65;5.00;;;26.40;61.70;;;;;;5014862;28;20409;-71
2022/08/05 04:16:43;;;;;;;16.45;4.93;;;26.40;61.20;;;;;;4997105;28;20397;-72
2022/08/05 04:19:12;;;;;;;8.75;4.88;;;26.40;60.60;;;;;;5014072;28;20447;-69
2022/08/05 04:21:38;;;;;;;8.75;5.00;;;26.40;60.90;;;;;;4997394;28;20402;-70
2022/08/05 04:24:04;;;;;;;14.20;5.22;;;26.30;60.60;;;;;;5012936;28;20397;-71
2022/08/05 04:26:30;;;;;;;12.10;5.30;;;26.30;60.70;;;;;;5014627;28;20377;-70
2022/08/05 04:28:56;;;;;;;11.60;5.17;;;26.30;60.50;;;;;;5014256;28;20417;-69
2022/08/05 04:31:21;;;;;;;13.18;5.30;;;26.30;60.50;;;;;;5014357;28;20422;-69
2022/08/05 04:33:48;;;;;;;11.13;5.23;;;26.20;60.70;;;;;;5014432;28;20416;-69
2022/08/05 04:36:14;;;;;;;9.32;5.15;;;26.30;60.40;;;;;;5014543;28;20404;-70
2022/08/05 04:38:42;;;;;;;9.23;5.20;;;26.30;60.40;;;;;;5014943;28;20478;-68
2022/08/05 04:41:07;;;;;;;8.37;5.23;;;26.20;60.50;;;;;;5014189;28;20446;-68
2022/08/05 04:43:33;;;;;;;8.15;5.10;;;26.20;60.50;;;;;;5014041;28;20468;-69
2022/08/05 04:45:59;;;;;;;7.83;5.37;;;26.30;60.60;;;;;;5013932;28;20397;-69
2022/08/05 04:48:24;;;;;;;8.60;4.90;;;26.30;60.60;;;;;;5014619;28;20452;-68
2022/08/05 04:50:50;;;;;;;8.13;5.27;;;26.20;60.50;;;;;;5014606;28;20518;-69
2022/08/05 04:53:17;;;;;;;8.53;4.93;;;26.20;60.50;;;;;;5013575;28;20427;-68
2022/08/05 04:55:44;;;;;;;7.07;5.03;;;26.20;60.60;;;;;;5014030;28;20480;-68
2022/08/05 04:58:12;;;;;;;8.30;4.78;;;26.20;60.60;;;;;;5013971;28;20385;-68
2022/08/05 05:00:39;;;;;;;6.60;4.95;;;26.20;60.70;;;;;;5013863;28;20384;-68
2022/08/05 05:03:06;;;;;;;9.25;5.45;;;26.20;60.60;;;;;;5013777;28;20447;-68
2022/08/05 05:05:32;;;;;;;13.02;5.35;;;26.20;60.30;;;;;;4996907;28;20900;-68
2022/08/05 05:08:03;;;;;;;8.52;5.20;;;26.20;60.70;;;;;;5014072;28;20393;-69
2022/08/05 05:10:40;;;;;;;9.02;5.32;;;26.20;60.80;;;;;;5013517;28;20396;-69
2022/08/05 05:13:07;;;;;;;10.68;5.20;;;26.20;60.80;;;;;;5013371;28;20416;-69
2022/08/05 05:15:33;;;;;;;7.20;4.60;;;26.20;60.90;;;;;;5014181;28;20427;-68
2022/08/05 05:17:58;;;;;;;10.27;4.93;;;26.20;60.90;;;;;;5014483;28;20401;-70
2022/08/05 05:20:24;;;;;;;10.37;5.10;;;26.20;61.20;;;;;;5013969;28;20393;-68
2022/08/05 05:22:50;;;;;;;8.88;5.20;;;26.20;61.80;;;;;;5014512;28;20440;-70
2022/08/05 05:25:15;;;;;;;8.43;4.83;;;26.30;61.30;;;;;;5012699;28;20396;-68
2022/08/05 05:27:41;;;;;;;8.33;4.77;;;26.20;62.30;;;;;;5013986;28;20746;-68
2022/08/05 05:30:07;;;;;;;7.68;5.22;;;26.30;62.60;;;;;;5007718;28;20485;-69
2022/08/05 05:32:33;;;;;;;8.68;4.72;;;26.30;62.80;;;;;;5003091;28;20412;-68
2022/08/05 05:34:59;;;;;;;9.13;4.90;;;26.30;62.10;;;;;;5004107;28;20391;-69
2022/08/05 05:37:24;;;;;;;8.38;5.07;;;26.30;62.10;;;;;;5000250;28;20418;-68
2022/08/05 05:39:50;;;;;;;6.80;4.68;;;26.30;61.30;;;;;;5003799;28;21003;-68
2022/08/05 05:42:16;;;;;;;8.37;5.13;;;26.30;61.00;;;;;;5002029;28;20445;-68
2022/08/05 05:44:41;;;;;;;6.32;4.93;;;26.30;61.20;;;;;;5002694;28;20856;-68
2022/08/05 05:47:07;;;;;;;7.07;4.80;;;26.30;61.70;;;;;;5009234;28;20730;-68
2022/08/05 05:49:33;;;;;;;7.27;4.93;;;26.30;61.30;;;;;;5012967;28;20400;-68
2022/08/05 05:51:58;;;;;;;7.50;4.70;;;26.30;60.90;;;;;;5011932;28;20423;-68
2022/08/05 05:54:24;;;;;;;6.93;4.65;;;26.30;61.10;;;;;;5011551;28;20433;-69
2022/08/05 05:56:50;;;;;;;5.93;4.63;;;26.20;61.10;;;;;;5012899;28;20559;-68
2022/08/05 05:59:15;;;;;;;6.20;4.47;;;26.30;61.20;;;;;;5010060;28;20408;-68
2022/08/05 06:01:42;;;;;;;5.50;4.60;;;26.30;61.20;;;;;;5012670;28;20392;-68
2022/08/05 06:04:09;;;;;;;6.28;4.63;;;26.20;61.10;;;;;;5012829;28;20401;-69
2022/08/05 06:06:36;;;;;;;5.28;4.47;;;26.20;61.10;;;;;;5012733;28;20389;-68
2022/08/05 06:09:04;;;;;;;6.68;4.50;;;26.30;61.10;;;;;;5012697;28;20403;-69
2022/08/05 06:11:30;;;;;;;5.32;4.35;;;26.20;61.10;;;;;;5012146;28;20401;-68
2022/08/05 06:13:56;;;;;;;4.68;4.15;;;26.20;61.10;;;;;;5012547;28;20758;-69
2022/08/05 06:16:22;;;;;;;5.10;4.23;;;26.20;61.20;;;;;;5012821;28;20397;-69
2022/08/05 06:18:47;;;;;;;4.82;4.20;;;26.30;61.20;;;;;;5012541;28;20389;-68
2022/08/05 06:21:13;;;;;;;5.00;4.10;;;26.20;61.20;;;;;;5010880;28;20396;-68
2022/08/05 06:23:39;;;;;;;5.43;4.43;;;26.30;61.20;;;;;;5012445;28;20404;-68
2022/08/05 06:26:04;;;;;;;6.10;4.10;;;26.20;61.20;;;;;;5012330;28;20531;-68
2022/08/05 06:28:30;;;;;;;4.77;4.20;;;26.20;61.20;;;;;;5012466;28;20483;-68
2022/08/05 06:30:55;;;;;;;5.13;4.50;;;26.20;61.20;;;;;;5012022;28;20393;-68
2022/08/05 06:33:21;;;;;;;5.00;4.40;;;26.30;61.30;;;;;;5011707;28;20900;-68
2022/08/05 06:35:47;;;;;;;4.90;4.50;;;26.30;61.30;;;;;;5010765;28;21016;-69
2022/08/05 06:38:12;;;;;;;4.95;4.38;;;26.30;61.20;;;;;;5010853;28;20425;-68
2022/08/05 06:40:41;;;;;;;5.82;4.70;;;26.30;61.20;;;;;;5012098;28;20478;-68
2022/08/05 06:43:06;;;;;;;4.85;4.35;;;26.30;61.80;;;;;;5012059;28;20400;-68
2022/08/05 06:45:32;;;;;;;4.73;4.30;;;26.30;61.20;;;;;;5011335;28;20400;-68
2022/08/05 06:47:57;;;;;;;4.72;4.22;;;26.40;61.20;;;;;;5011776;28;20415;-68
2022/08/05 06:50:25;;;;;;;4.88;4.47;;;26.30;61.10;;;;;;5011954;28;20447;-68
2022/08/05 06:52:50;;;;;;;5.38;4.43;;;26.40;61.10;;;;;;4994342;28;20947;-68
2022/08/05 06:55:16;;;;;;;5.00;4.50;;;26.30;61.00;;;;;;4993738;28;20479;-68
2022/08/05 06:57:42;;;;;;;5.57;4.60;;;26.30;61.20;;;;;;5011986;28;20885;-68
2022/08/05 07:00:09;;;;;;;4.97;4.40;;;26.40;61.20;;;;;;5011801;28;20385;-68
2022/08/05 07:02:45;;;;;;;5.43;4.70;;;26.30;61.00;;;;;;4994029;28;20432;-68
2022/08/05 07:05:11;;;;;;;5.13;4.13;;;26.30;61.10;;;;;;5011680;28;20389;-68
2022/08/05 07:07:38;;;;;;;6.40;4.53;;;26.40;61.20;;;;;;5011698;28;20730;-68
2022/08/05 07:10:05;;;;;;;7.05;4.43;;;26.30;61.10;;;;;;5011441;28;20476;-68
2022/08/05 07:17:58;;;;;;;5.00;4.00;;;26.30;61.20;;;;;;5011686;28;20376;-68
2022/08/05 07:20:24;;;;;;;4.85;4.30;;;26.30;61.20;;;;;;5011441;28;20389;-68
2022/08/05 07:22:49;;;;;;;5.67;4.37;;;26.30;61.20;;;;;;5011642;28;20380;-68
2022/08/05 07:25:15;;;;;;;5.70;4.47;;;26.30;61.30;;;;;;5009938;28;20396;-69
2022/08/05 07:27:41;;;;;;;4.90;4.40;;;26.30;61.20;;;;;;5010821;28;20385;-68
2022/08/05 07:30:07;;;;;;;5.35;4.43;;;26.30;61.20;;;;;;4993451;28;20443;-68
2022/08/05 07:32:37;;;;;;;4.90;4.40;;;26.30;61.30;;;;;;5010357;28;20417;-68
2022/08/05 07:35:21;;;;;;;4.80;4.30;;;26.30;61.30;;;;;;5011311;28;20388;-68
2022/08/05 07:37:46;;;;;;;6.70;4.22;;;26.30;61.20;;;;;;5010180;28;20427;-68
2022/08/05 07:40:12;;;;;;;6.30;4.32;;;26.30;61.40;;;;;;5011547;28;20389;-69
2022/08/05 07:42:38;;;;;;;11.00;4.63;;;26.30;63.00;;;;;;5011552;28;20884;-68
2022/08/05 07:45:04;;;;;;;6.73;4.53;;;26.40;61.70;;;;;;4993901;28;20428;-68
2022/08/05 07:47:29;;;;;;;6.88;4.28;;;26.40;61.60;;;;;;5010989;28;20385;-68
2022/08/05 07:49:55;;;;;;;5.40;4.57;;;26.40;61.80;;;;;;5011431;28;20416;-68
2022/08/05 07:52:21;;;;;;;6.07;4.65;;;26.40;61.70;;;;;;5011210;28;20408;-68
2022/08/05 07:54:47;;;;;;;6.32;4.90;;;26.40;61.70;;;;;;4993852;28;20401;-68
2022/08/05 07:57:12;;;;;;;5.68;4.50;;;26.40;61.70;;;;;;5010339;28;20467;-69
2022/08/05 07:59:38;;;;;;;6.38;4.50;;;26.40;61.60;;;;;;5010922;28;20897;-68
2022/08/05 08:02:04;;;;;;;5.33;4.60;;;26.40;61.60;;;;;;5011004;28;20393;-68
2022/08/05 08:04:29;;;;;;;5.85;4.70;;;26.40;61.60;;;;;;5011293;28;20392;-68
2022/08/05 08:06:55;;;;;;;5.20;4.40;;;26.40;61.60;;;;;;5011095;28;20397;-68
2022/08/05 08:09:23;;;;;;;5.47;4.30;;;26.40;61.70;;;;;;5010818;28;20389;-68
2022/08/05 08:11:48;;;;;;;5.55;4.38;;;26.40;61.60;;;;;;5010947;28;20792;-69
2022/08/05 08:14:14;;;;;;;5.00;4.50;;;26.40;61.60;;;;;;5011064;28;20480;-69
2022/08/05 08:16:40;;;;;;;5.90;4.80;;;26.40;61.60;;;;;;5011134;28;20483;-68
2022/08/05 08:19:07;;;;;;;5.53;4.80;;;26.40;61.50;;;;;;5011102;28;20400;-69
2022/08/05 08:21:32;;;;;;;6.15;4.60;;;26.40;61.60;;;;;;5011100;28;20397;-68
2022/08/05 08:23:58;;;;;;;5.10;4.60;;;26.40;61.50;;;;;;5013371;28;20404;-69
2022/08/05 08:26:24;;;;;;;6.07;4.77;;;26.40;61.60;;;;;;5014650;28;20480;-68
2022/08/05 08:28:49;;;;;;;4.70;4.30;;;26.40;61.50;;;;;;4996901;28;20408;-69
2022/08/05 08:31:15;;;;;;;5.05;4.50;;;26.40;61.50;;;;;;5014401;28;20404;-68
2022/08/05 08:33:40;;;;;;;5.20;4.70;;;26.40;61.60;;;;;;5013992;28;20425;-68
2022/08/05 08:36:07;;;;;;;5.47;4.60;;;26.40;61.60;;;;;;5014147;28;20423;-69
2022/08/05 08:38:32;;;;;;;4.90;4.50;;;26.40;61.50;;;;;;4996776;28;20397;-68
2022/08/05 08:40:59;;;;;;;4.68;4.28;;;26.40;61.50;;;;;;5014272;28;20465;-68
2022/08/05 08:43:26;;;;;;;5.80;4.60;;;26.40;61.50;;;;;;5013884;28;20389;-68
2022/08/05 08:45:53;;;;;;;4.82;4.43;;;26.40;61.50;;;;;;5013834;28;20455;-69
2022/08/05 08:48:19;;;;;;;4.95;4.55;;;26.40;61.40;;;;;;5012462;28;20401;-68
2022/08/05 08:50:46;;;;;;;5.30;4.60;;;26.40;61.50;;;;;;5014205;28;20404;-68
2022/08/05 08:53:15;;;;;;;4.97;4.47;;;26.50;61.50;;;;;;5013934;28;20420;-68
2022/08/05 08:55:41;;;;;;;4.80;4.40;;;26.40;61.40;;;;;;4996306;28;20924;-68
2022/08/05 08:58:09;;;;;;;4.97;4.57;;;26.40;61.40;;;;;;5013932;28;20485;-68
2022/08/05 09:00:35;;;;;;;4.82;4.38;;;26.40;61.30;;;;;;5014116;28;20782;-69
2022/08/05 09:03:04;;;;;;;5.05;4.57;;;26.50;61.40;;;;;;5013934;28;20393;-69
2022/08/05 09:05:29;;;;;;;4.80;4.40;;;26.40;61.30;;;;;;4995796;28;20385;-68
2022/08/05 09:07:55;;;;;;;4.73;4.30;;;26.50;61.30;;;;;;5013800;28;20427;-68
2022/08/05 09:10:21;;;;;;;4.60;4.20;;;26.50;61.30;;;;;;5013623;28;20377;-68
2022/08/05 09:12:47;;;;;;;4.90;4.50;;;26.50;61.40;;;;;;5013516;28;20427;-68
2022/08/05 09:15:13;;;;;;;5.10;4.60;;;26.50;61.40;;;;;;5013481;28;20400;-69
2022/08/05 09:17:39;;;;;;;4.65;4.25;;;26.50;61.20;;;;;;5013096;28;20948;-69
2022/08/05 09:20:06;;;;;;;4.60;4.20;;;26.50;61.20;;;;;;5013419;28;20443;-69
2022/08/05 09:23:12;;;;;;;5.05;4.65;;;26.50;61.10;;;;;;5013357;28;20400;-70
2022/08/05 09:26:04;;;;;;;4.75;4.35;;;26.50;61.20;;;;;;5011763;28;20404;-69
2022/08/05 09:28:30;;;;;;;5.28;4.78;;;26.50;61.20;;;;;;5013359;28;20423;-69
2022/08/05 09:31:03;;;;;;;6.70;4.47;;;26.50;61.30;;;;;;5013306;28;20397;-69
2022/08/05 09:33:29;;;;;;;6.35;4.47;;;26.50;61.30;;;;;;5012409;28;20436;-68
2022/08/05 09:36:03;;;;;;;5.45;4.43;;;26.50;61.20;;;;;;5013059;28;20417;-68
2022/08/05 09:38:29;;;;;;;4.80;4.30;;;26.50;61.70;;;;;;5013230;28;20440;-68
2022/08/05 09:41:08;;;;;;;4.78;4.30;;;26.50;61.00;;;;;;5013215;28;20385;-68
2022/08/05 09:43:36;;;;;;;4.97;4.50;;;26.50;61.10;;;;;;5011496;28;20400;-71
2022/08/05 09:46:05;;;;;;;5.20;4.20;;;26.50;62.00;;;;;;5012796;28;20495;-70
2022/08/05 09:48:33;;;;;;;6.93;4.47;;;26.50;61.30;;;;;;4995525;28;20538;-69
2022/08/05 09:51:07;;;;;;;6.67;4.93;;;26.50;61.30;;;;;;4995314;28;20400;-69
2022/08/05 09:53:47;;;;;;;9.05;6.30;;;26.60;61.90;;;;;;5012503;28;20504;-68
2022/08/05 09:56:13;;;;;;;9.13;5.70;;;26.60;63.80;;;;;;5012873;28;20400;-68
2022/08/05 09:58:38;;;;;;;11.70;5.33;;;26.70;63.20;;;;;;5003100;28;20410;-68
2022/08/05 10:01:07;;;;;;;9.95;5.10;;;26.70;62.80;;;;;;5004650;28;20407;-68
2022/08/05 10:03:33;;;;;;;8.38;5.25;;;26.70;63.00;;;;;;4993468;28;20465;-68
2022/08/05 10:06:09;;;;;;;6.93;4.80;;;26.70;62.60;;;;;;4996064;28;20460;-69
2022/08/05 10:08:37;;;;;;;6.60;4.43;;;26.70;62.30;;;;;;5012602;28;20381;-72
2022/08/05 10:11:14;;;;;;;9.70;4.65;;;26.70;61.60;;;;;;5012460;28;20407;-69
2022/08/05 10:13:40;;;;;;;11.90;4.65;;;26.70;61.70;;;;;;5012076;28;20420;-68
2022/08/05 10:16:25;;;;;;;7.53;4.78;;;26.70;63.30;;;;;;5007757;28;20893;-68
2022/08/05 10:18:52;;;;;;;6.57;4.63;;;26.70;62.40;;;;;;4992531;28;20387;-68
2022/08/05 10:21:18;;;;;;;5.38;4.65;;;26.80;62.30;;;;;;4975368;28;20402;-68
2022/08/05 10:23:44;;;;;;;6.60;4.50;;;26.80;62.00;;;;;;4975002;28;20399;-69
2022/08/05 10:26:11;;;;;;;6.20;4.50;;;26.80;62.10;;;;;;4992398;28;20941;-69
2022/08/05 10:28:37;;;;;;;5.28;4.55;;;26.80;62.00;;;;;;4992682;28;20409;-69
2022/08/05 10:31:03;;;;;;;6.22;4.40;;;26.80;62.00;;;;;;4992567;28;20395;-68
2022/08/05 10:33:31;;;;;;;4.90;4.40;;;26.80;61.70;;;;;;4991928;28;20421;-68
2022/08/05 10:35:58;;;;;;;5.70;4.60;;;26.80;61.80;;;;;;4975097;28;20445;-68
2022/08/05 10:38:26;;;;;;;5.15;4.35;;;26.80;61.60;;;;;;4992506;28;20794;-68
2022/08/05 10:41:08;;;;;;;5.35;4.40;;;26.80;61.60;;;;;;4979498;28;20403;-68
2022/08/05 10:44:01;;;;;;;5.72;4.28;;;26.80;61.50;;;;;;5001311;28;20430;-69
2022/08/05 10:46:45;;;;;;;5.10;4.53;;;26.80;61.20;;;;;;4984268;28;20405;-68
2022/08/05 10:49:11;;;;;;;14.02;5.22;;;26.80;61.20;;;;;;5001527;28;20405;-68
2022/08/05 10:51:46;;;;;;;8.98;4.65;;;26.80;61.20;;;;;;4999598;28;20402;-67
2022/08/05 10:54:12;;;;;;;7.90;4.65;;;26.80;63.20;;;;;;5000286;28;20425;-67
2022/08/05 10:56:50;;;;;;;12.57;4.97;;;26.80;63.50;;;;;;5000377;28;20385;-69
2022/08/05 10:59:29;;;;;;;15.57;5.30;;;26.80;63.00;;;;;;5000915;28;20392;-68
2022/08/05 11:02:08;;;;;;;8.60;4.45;;;26.80;62.00;;;;;;5004213;28;20393;-67
2022/08/05 11:04:45;;;;;;;7.57;4.68;;;26.80;61.90;;;;;;5001560;28;20741;-68
2022/08/05 11:07:15;;;;;;;6.13;4.32;;;26.80;61.50;;;;;;5001266;28;20405;-69
2022/08/05 11:09:48;;;;;;;7.75;4.88;;;26.90;61.40;;;;;;5001494;28;20899;-69
2022/08/05 11:12:35;;;;;;;9.75;4.60;;;26.80;61.40;;;;;;4984938;28;20405;-69
2022/08/05 11:15:14;;;;;;;10.25;5.20;;;26.80;61.50;;;;;;5000883;28;20401;-68
2022/08/05 11:18:01;;;;;;;7.78;4.68;;;26.90;62.20;;;;;;5001203;28;20396;-68
2022/08/05 11:20:43;;;;;;;9.30;5.00;;;26.90;62.20;;;;;;5006902;28;20772;-68
2022/08/05 11:23:45;;;;;;;11.90;10.23;;;27.00;62.20;;;;;;5001798;28;20473;-68
2022/08/05 11:26:17;;;;;;;33.80;30.88;;;27.00;61.90;;;;;;5002199;28;20432;-69
2022/08/05 11:28:46;;;;;;;37.38;33.97;;;27.00;61.70;;;;;;5001581;28;20385;-70
2022/08/05 11:31:11;;;;;;;33.20;30.38;;;27.00;61.40;;;;;;4984035;28;20501;-68
2022/08/05 11:33:51;;;;;;;31.38;28.63;;;27.10;61.60;;;;;;4983274;28;20424;-67
2022/08/05 11:36:19;;;;;;;29.45;26.67;;;27.10;61.50;;;;;;5001265;28;20436;-67
2022/08/05 11:38:46;;;;;;;29.70;26.88;;;27.10;61.90;;;;;;5000439;28;20398;-70
2022/08/05 11:41:16;;;;;;;29.08;26.33;;;27.20;61.90;;;;;;4981786;28;20423;-68
2022/08/05 11:44:03;;;;;;;28.42;25.80;;;27.20;61.50;;;;;;5000350;28;20400;-72
2022/08/05 11:46:39;;;;;;;27.98;25.13;;;27.30;61.90;;;;;;5001667;28;20437;-67
2022/08/05 11:49:06;;;;;;;27.48;24.88;;;27.30;62.20;;;;;;5001140;28;20804;-69
2022/08/05 11:51:33;;;;;;;31.70;28.30;;;27.40;62.00;;;;;;4980611;28;20394;-67
2022/08/05 11:54:00;;;;;;;29.42;26.27;;;27.50;62.30;;;;;;5002254;28;20424;-68
2022/08/05 11:56:48;;;;;;;25.98;23.42;;;27.50;62.10;;;;;;5000867;28;20759;-68
2022/08/05 11:59:16;;;;;;;25.85;22.30;;;27.50;61.60;;;;;;5007860;28;20726;-67
2022/08/05 12:01:55;;;;;;;25.77;23.08;;;27.50;61.70;;;;;;5003333;28;20402;-67
2022/08/05 12:04:21;;;;;;;26.52;23.77;;;27.60;61.80;;;;;;5006334;28;20396;-70
2022/08/05 12:06:47;;;;;;;32.90;29.45;;;27.60;62.00;;;;;;5005640;28;20449;-67
2022/08/05 12:09:17;;;;;;;31.83;28.60;;;27.70;62.40;;;;;;5002609;28;20473;-67
2022/08/05 12:11:44;;;;;;;30.02;27.10;;;27.70;62.00;;;;;;5004323;28;20420;-70
2022/08/05 12:14:10;;;;;;;28.40;25.35;;;27.70;62.00;;;;;;5005223;28;20488;-71
2022/08/05 12:16:41;;;;;;;26.73;24.00;;;27.70;61.70;;;;;;4986356;28;20398;-67
2022/08/05 12:19:09;;;;;;;24.38;21.92;;;27.70;61.80;;;;;;5004942;28;20401;-68
2022/08/05 12:21:47;;;;;;;22.58;20.33;;;27.70;61.50;;;;;;5005019;28;20423;-67
2022/08/05 12:24:17;;;;;;;21.65;19.55;;;27.70;61.50;;;;;;5005092;28;20421;-71
2022/08/05 12:26:46;;;;;;;20.50;18.50;;;27.70;61.60;;;;;;5003986;28;20394;-71
2022/08/05 12:29:15;;;;;;;19.13;17.17;;;27.70;61.50;;;;;;5002415;28;20391;-67
2022/08/05 12:31:45;;;;;;;18.10;16.30;;;27.80;61.70;;;;;;5003803;28;20432;-67
2022/08/05 12:34:11;;;;;;;17.35;15.57;;;27.70;61.70;;;;;;5004347;28;20425;-68
2022/08/05 12:36:37;;;;;;;16.50;14.95;;;27.70;61.50;;;;;;4984144;28;20454;-69
2022/08/05 12:39:05;;;;;;;16.65;15.05;;;27.70;61.60;;;;;;4983608;28;20884;-68
2022/08/05 12:41:32;;;;;;;15.80;14.20;;;27.70;61.50;;;;;;4982873;28;20447;-66
2022/08/05 12:44:08;;;;;;;14.63;13.13;;;27.70;61.50;;;;;;4984586;28;20723;-67
2022/08/05 12:46:35;;;;;;;13.93;12.52;;;27.70;61.40;;;;;;4999986;28;20740;-67
2022/08/05 12:49:13;;;;;;;13.82;12.45;;;27.70;61.30;;;;;;4983361;28;20987;-68
2022/08/05 12:51:54;;;;;;;12.45;11.35;;;27.70;61.20;;;;;;4983311;28;20392;-71
2022/08/05 12:54:22;;;;;;;12.40;11.30;;;27.70;61.10;;;;;;5004644;28;20950;-67
2022/08/05 12:56:59;;;;;;;12.40;11.30;;;27.70;61.10;;;;;;4999654;28;20393;-71
2022/08/05 12:59:27;;;;;;;12.20;11.03;;;27.80;60.90;;;;;;4986011;28;20383;-68
2022/08/05 13:01:57;;;;;;;11.35;10.30;;;27.70;61.50;;;;;;4982611;28;20426;-68